Accueil
METAR-TAF:

METAR-TAF

Aéroports :

Aéroport de Moscou-Cheremetievo

Moscou-Cheremetievo, Russie

latitude: 55-58N, longitude: 037-25E, altitude: 190 m

Observation

Le bulletin a été fait il y a 15 minutes, à 01:00 UTC
Vent 6 kt de sud/sud-ouest
Température 5°C
Humidité 87%
Pression 1025 hPa
Visibilité 10 km ou plus
Nuages fragmentés à une hauteur de 3800 ft

METAR: UUEE 220100Z 21003MPS 9999 BKN038 05/03 Q1025 R24C/CLRD62 NOSIG

Heure: 04:15 (01:15 UTC)

Prévision

Le bulletin a été fait il y a 2 heures et 19 minutes, à 22:56 UTC
Prévision valable du 22 à 00 UTC au 22 à 24 UTC
Vent 4 kt de sud/sud-ouest
Visibilité: 9000 m
Nuages fragmentés à une hauteur de 2000 ft
Evoluant progressivement
du 22 à 06 UTC au 22 à 08 UTC
Vent 14 kt de sud-ouest

TAF: UUEE 212256Z 2200/2224 20002MPS 9000 BKN020 TX08/2212Z TN04/2203Z BECMG 2206/2208 22007MPS

Observations et prévisions météorologiques de plus de 4000 aéroports (messages METAR et TAF).

Les stations disponibles sont représentées par des disques jaunes et rouges sur la carte.

Passer la souris dessus pour voir le nom de la station.

Cliquer dessus pour voir les observations et prévisions météorologiques.

Pour changer de carte: cliquez sur les boutons verts avec une croix noire pour zoomer, sur le bouton vert avec un tiret pour effectuer un zoom arrière, ou sur les flèches vertes pour les cartes adjacentes.


METAR-TAF: